Time;durP1;ratioP1;P1;durP2;ratioP2;P2;SDS_P1;SDS_P2;PMS_P1;PMS_P2;Temp;Humidity;BMP_temperature;BMP_pressure;BME280_temperature;BME280_humidity;BME280_pressure;Samples;Min_cycle;Max_cycle;Signal;HPM_P1;HPM_P2
2022/09/13 00:01:00;;;;;;;3.45;3.03;;;;;;;13.18;61.39;100648.91;5072872;28;20047;-69
2022/09/13 00:03:28;;;;;;;8.63;3.25;;;;;;;13.22;61.31;100649.38;5091263;28;20488;-69
2022/09/13 00:05:54;;;;;;;5.07;3.13;;;;;;;13.36;61.42;100643.19;5090567;28;20040;-69
2022/09/13 00:08:22;;;;;;;3.42;3.10;;;;;;;13.26;61.19;100640.75;5090361;28;20511;-69
2022/09/13 00:10:49;;;;;;;9.02;3.67;;;;;;;13.14;61.53;100642.16;5090308;28;20040;-69
2022/09/13 00:13:16;;;;;;;7.05;3.50;;;;;;;13.20;61.26;100646.00;5087811;28;20059;-69
2022/09/13 00:15:45;;;;;;;4.13;2.92;;;;;;;13.07;61.83;100633.13;5091037;28;20101;-69
2022/09/13 00:18:12;;;;;;;4.22;3.35;;;;;;;13.34;60.91;100620.97;5091032;28;20048;-70
2022/09/13 00:20:39;;;;;;;7.82;3.15;;;;;;;13.37;60.65;100625.16;5091787;28;20048;-67
2022/09/13 00:23:08;;;;;;;8.32;3.72;;;;;;;13.46;60.26;100624.94;5089495;28;20062;-69
2022/09/13 00:25:35;;;;;;;4.57;3.30;;;;;;;13.42;60.44;100617.38;5091590;28;20040;-70
2022/09/13 00:28:02;;;;;;;4.82;3.13;;;;;;;13.39;60.74;100610.50;5090179;28;20044;-70
2022/09/13 00:30:28;;;;;;;3.78;3.00;;;;;;;13.13;61.28;100601.94;5090833;28;20472;-69
2022/09/13 00:32:55;;;;;;;4.65;2.92;;;;;;;13.13;61.18;100600.09;5090357;28;20040;-69
2022/09/13 00:35:22;;;;;;;4.60;3.35;;;;;;;13.09;61.55;100596.09;5090056;28;20502;-69
2022/09/13 00:37:49;;;;;;;4.90;3.10;;;;;;;13.03;61.64;100586.84;5089663;28;20043;-69
2022/09/13 00:40:15;;;;;;;3.58;3.20;;;;;;;12.68;62.74;100572.09;5089671;28;20052;-69
2022/09/13 00:42:42;;;;;;;5.35;3.03;;;;;;;12.84;62.24;100576.59;5090020;28;20048;-69
2022/09/13 00:45:11;;;;;;;7.63;2.90;;;;;;;13.03;61.52;100575.25;5090595;28;20059;-69
2022/09/13 00:47:50;;;;;;;7.95;3.30;;;;;;;13.07;61.39;100563.09;5089110;28;20488;-69
2022/09/13 00:50:25;;;;;;;4.47;3.20;;;;;;;12.93;61.64;100563.88;5089672;28;20048;-70
2022/09/13 00:52:58;;;;;;;5.53;3.40;;;;;;;12.78;62.03;100556.59;5090077;28;20392;-69
2022/09/13 00:55:30;;;;;;;6.47;3.45;;;;;;;12.99;61.54;100555.94;5090793;28;20504;-69
2022/09/13 00:58:03;;;;;;;5.28;3.60;;;;;;;13.01;61.26;100545.00;5089982;28;20124;-69
2022/09/13 01:00:30;;;;;;;5.50;3.50;;;;;;;13.07;61.04;100546.94;5089490;28;20080;-69
2022/09/13 01:03:05;;;;;;;7.90;2.97;;;;;;;12.88;61.55;100542.91;5089872;28;20116;-69
2022/09/13 01:09:12;;;;;;;7.78;3.45;;;;;;;12.76;61.95;100534.38;5090969;28;20093;-69
2022/09/13 01:11:55;;;;;;;6.00;3.20;;;;;;;12.94;61.23;100533.25;5078888;28;20044;-69
2022/09/13 01:14:22;;;;;;;4.32;2.90;;;;;;;12.84;61.36;100533.50;5089694;28;20048;-69
2022/09/13 01:16:49;;;;;;;5.32;2.85;;;;;;;12.86;61.43;100529.59;5089811;28;20877;-69
2022/09/13 01:19:16;;;;;;;6.55;3.30;;;;;;;12.87;61.46;100531.28;5087447;28;20055;-69
2022/09/13 01:22:16;;;;;;;4.38;3.45;;;;;;;13.13;60.58;100530.06;5088377;28;20040;-69
2022/09/13 01:25:10;;;;;;;5.40;3.00;;;;;;;13.13;60.46;100538.13;5089889;28;20058;-69
2022/09/13 01:28:01;;;;;;;3.70;2.95;;;;;;;12.95;60.71;100537.63;5089658;28;20044;-69
2022/09/13 01:30:54;;;;;;;3.10;2.80;;;;;;;13.20;60.07;100536.41;5088865;28;20059;-69
2022/09/13 01:34:00;;;;;;;4.75;2.83;;;;;;;13.16;60.10;100532.41;5090857;28;20395;-69
2022/09/13 01:36:52;;;;;;;5.88;3.28;;;;;;;13.00;60.61;100530.66;5052942;28;20434;-69
2022/09/13 01:39:27;;;;;;;4.57;3.30;;;;;;;12.60;62.06;100527.25;5090076;28;20043;-69
2022/09/13 01:41:56;;;;;;;3.45;2.88;;;;;;;12.98;60.84;100530.03;5090711;28;20040;-69
2022/09/13 01:44:38;;;;;;;5.05;3.10;;;;;;;12.94;61.07;100527.84;5090462;28;20046;-69
2022/09/13 01:47:19;;;;;;;4.35;3.58;;;;;;;12.94;60.73;100528.72;5090986;28;20048;-69
2022/09/13 01:50:08;;;;;;;3.90;2.83;;;;;;;12.81;61.19;100515.00;5091041;28;20054;-68
2022/09/13 01:52:53;;;;;;;4.07;2.95;;;;;;;12.74;61.85;100509.50;5090472;28;20051;-70
2022/09/13 01:56:00;;;;;;;3.78;3.30;;;;;;;12.62;61.87;100508.22;5070589;28;20055;-69
2022/09/13 01:58:48;;;;;;;4.70;3.25;;;;;;;12.78;61.22;100513.50;5053359;28;20048;-69
2022/09/13 02:01:20;;;;;;;6.22;2.85;;;;;;;12.61;61.89;100498.47;5070579;28;20048;-69
2022/09/13 02:04:05;;;;;;;4.43;3.63;;;;;;;12.79;61.53;100495.50;5070679;28;20047;-69
2022/09/13 02:06:45;;;;;;;4.97;3.50;;;;;;;12.69;61.77;100493.00;5070355;28;20491;-69
2022/09/13 02:09:19;;;;;;;8.57;3.83;;;;;;;12.73;61.70;100498.88;5070728;28;20057;-69
2022/09/13 02:11:55;;;;;;;3.85;3.30;;;;;;;12.35;62.21;100490.75;5070642;28;20041;-69
2022/09/13 02:14:28;;;;;;;9.60;3.50;;;;;;;12.44;62.37;100484.28;5070397;28;20056;-69
2022/09/13 02:17:04;;;;;;;6.75;4.18;;;;;;;12.44;62.37;100478.06;5070844;28;20044;-69
2022/09/13 02:19:40;;;;;;;6.90;4.28;;;;;;;12.56;61.92;100487.41;5070433;28;20040;-69
2022/09/13 02:22:12;;;;;;;4.05;3.65;;;;;;;12.48;62.10;100479.38;5070938;28;20044;-69
2022/09/13 02:24:41;;;;;;;;;;;;;;;12.59;61.88;100478.97;5074375;28;20517;-69
2022/09/13 02:27:13;;;;;;;6.78;3.83;;;;;;;12.39;62.59;100476.75;5074267;28;19920;-69
2022/09/13 02:29:44;;;;;;;4.25;3.28;;;;;;;12.41;62.65;100463.13;5056319;28;20045;-69
2022/09/13 02:32:29;;;;;;;4.33;3.33;;;;;;;12.02;63.95;100458.66;5073443;28;20060;-69
2022/09/13 02:35:02;;;;;;;6.07;3.80;;;;;;;11.92;64.15;100455.34;5074287;28;20263;-69
2022/09/13 02:37:33;;;;;;;6.15;3.13;;;;;;;11.51;65.87;100458.16;5071906;28;20044;-69
2022/09/13 02:40:16;;;;;;;6.28;3.50;;;;;;;11.84;64.47;100453.53;5073393;28;20052;-69
2022/09/13 02:42:52;;;;;;;5.47;3.63;;;;;;;11.83;64.55;100437.56;5073487;28;20047;-69
2022/09/13 02:45:24;;;;;;;3.47;3.10;;;;;;;11.78;64.89;100437.25;5073142;28;20053;-69
2022/09/13 02:48:01;;;;;;;9.38;3.95;;;;;;;11.89;64.36;100443.06;5073552;28;20053;-69
2022/09/13 02:50:56;;;;;;;6.07;4.03;;;;;;;11.96;64.16;100456.66;5073707;28;20049;-69
2022/09/13 02:53:30;;;;;;;7.47;4.53;;;;;;;12.31;63.18;100439.13;5083239;28;20047;-69
2022/09/13 02:56:09;;;;;;;6.97;4.22;;;;;;;12.08;63.79;100449.88;5114202;28;20043;-69
2022/09/13 02:58:57;;;;;;;6.47;4.93;;;;;;;12.19;63.29;100437.88;5113997;28;20047;-69
2022/09/13 03:01:24;;;;;;;9.40;4.78;;;;;;;12.30;62.97;100434.78;5113890;28;20380;-69
2022/09/13 03:03:53;;;;;;;12.95;5.22;;;;;;;12.22;63.20;100426.78;5114091;28;20047;-69
2022/09/13 03:06:27;;;;;;;6.32;4.30;;;;;;;12.18;63.48;100420.09;5114088;28;20484;-69
2022/09/13 03:08:57;;;;;;;7.43;4.10;;;;;;;11.98;63.98;100419.69;5114372;28;20055;-69
2022/09/13 03:11:42;;;;;;;5.90;3.83;;;;;;;11.50;66.15;100402.75;5114411;28;20057;-69
2022/09/13 03:14:31;;;;;;;8.55;4.28;;;;;;;11.57;65.78;100394.84;5113816;28;20410;-69
2022/09/13 03:17:29;;;;;;;6.80;5.10;;;;;;;11.86;64.92;100391.53;5113987;28;20043;-69
2022/09/13 03:20:45;;;;;;;6.28;4.57;;;;;;;12.08;63.65;100403.34;5113514;28;20058;-69
2022/09/13 03:23:33;;;;;;;5.78;4.95;;;;;;;11.86;64.54;100389.69;5091379;28;20059;-69
2022/09/13 03:26:19;;;;;;;9.95;5.18;;;;;;;11.92;64.56;100388.13;5113785;28;20448;-69
2022/09/13 03:28:53;;;;;;;5.50;4.03;;;;;;;11.99;63.91;100386.41;5113337;28;20415;-69
2022/09/13 03:31:26;;;;;;;7.93;4.40;;;;;;;12.08;63.97;100385.34;5113795;28;20063;-68
2022/09/13 03:34:04;;;;;;;5.72;4.10;;;;;;;11.81;64.56;100383.16;5112711;28;20048;-70
2022/09/13 03:36:44;;;;;;;6.97;4.57;;;;;;;12.14;63.83;100392.72;5113537;28;20479;-69
2022/09/13 03:39:33;;;;;;;7.15;4.70;;;;;;;12.13;63.70;100390.19;5113110;28;20055;-69
2022/09/13 03:42:05;;;;;;;8.07;4.38;;;;;;;11.82;64.31;100382.13;5113389;28;20123;-69
2022/09/13 03:44:34;;;;;;;6.25;4.30;;;;;;;12.00;64.16;100390.75;5113359;28;20051;-70
2022/09/13 03:47:04;;;;;;;5.70;4.50;;;;;;;11.79;64.61;100395.94;5113187;28;20043;-69
2022/09/13 03:49:31;;;;;;;8.40;4.60;;;;;;;11.93;64.10;100396.03;5113222;28;20429;-69
2022/09/13 03:51:58;;;;;;;9.40;4.88;;;;;;;11.85;64.62;100388.00;5113326;28;20475;-69
2022/09/13 03:54:31;;;;;;;6.28;4.88;;;;;;;11.97;63.92;100387.59;5098470;28;20044;-69
2022/09/13 03:57:09;;;;;;;6.43;4.90;;;;;;;11.75;64.82;100368.56;5092751;28;20043;-69
2022/09/13 03:59:40;;;;;;;10.68;5.10;;;;;;;11.84;64.61;100372.91;5092720;28;20048;-69
2022/09/13 04:02:10;;;;;;;8.30;4.72;;;;;;;11.88;64.49;100371.53;5092409;28;20048;-69
2022/09/13 04:04:41;;;;;;;7.00;5.28;;;;;;;11.94;64.50;100361.91;5092831;28;20051;-69
2022/09/13 04:07:10;;;;;;;6.00;4.53;;;;;;;11.72;64.76;100360.84;5092257;28;20061;-69
2022/09/13 04:09:37;;;;;;;8.23;5.20;;;;;;;11.82;65.03;100356.09;5092255;28;20490;-69
2022/09/13 04:12:03;;;;;;;9.63;5.35;;;;;;;11.50;65.96;100356.25;5093177;28;20040;-69
2022/09/13 04:14:30;;;;;;;6.22;5.25;;;;;;;11.78;64.92;100352.09;5091724;28;20040;-69
2022/09/13 04:16:57;;;;;;;8.25;5.28;;;;;;;11.59;65.53;100356.03;5092022;28;20086;-69
2022/09/13 04:19:24;;;;;;;10.13;5.13;;;;;;;11.64;65.52;100359.03;5091786;28;20077;-70
2022/09/13 04:21:52;;;;;;;8.40;5.55;;;;;;;11.70;65.29;100357.53;5092616;28;20044;-69
2022/09/13 04:24:19;;;;;;;9.23;5.72;;;;;;;11.69;65.42;100348.63;5091940;28;20052;-69
2022/09/13 04:26:50;;;;;;;9.18;6.00;;;;;;;11.59;65.70;100348.00;5092723;28;20482;-69
2022/09/13 04:29:20;;;;;;;7.63;5.68;;;;;;;11.52;65.81;100346.16;5092564;28;20052;-69
2022/09/13 04:31:47;;;;;;;8.38;5.15;;;;;;;11.54;65.92;100336.91;5092281;28;20044;-69
2022/09/13 04:34:14;;;;;;;13.68;5.60;;;;;;;11.39;66.47;100325.25;5092450;28;20052;-69
2022/09/13 04:36:40;;;;;;;9.18;5.82;;;;;;;11.50;66.47;100329.41;5092230;28;20055;-69
2022/09/13 04:39:07;;;;;;;10.10;6.00;;;;;;;11.47;66.26;100319.81;5092211;28;20441;-69
2022/09/13 04:41:33;;;;;;;8.15;5.63;;;;;;;11.54;66.08;100328.84;5074684;28;20156;-69
2022/09/13 04:44:01;;;;;;;10.07;6.20;;;;;;;11.23;67.01;100324.28;5092200;28;20066;-69
2022/09/13 04:46:28;;;;;;;6.45;5.50;;;;;;;11.32;66.79;100327.78;5090905;28;20071;-69
2022/09/13 04:48:55;;;;;;;13.13;5.80;;;;;;;11.31;67.00;100320.75;5091988;28;20047;-69
2022/09/13 04:51:22;;;;;;;15.15;6.10;;;;;;;11.30;67.11;100318.22;5092105;28;20044;-69
2022/09/13 04:53:54;;;;;;;11.63;5.85;;;;;;;11.33;66.90;100316.03;5091618;28;20044;-69
2022/09/13 04:56:22;;;;;;;;;;;;;;;11.52;66.52;100319.28;5092242;28;20048;-69
2022/09/13 04:58:52;;;;;;;8.45;5.70;;;;;;;11.23;67.09;100318.91;5091579;28;19926;-69
2022/09/13 05:01:20;;;;;;;5.07;4.50;;;;;;;11.42;67.06;100306.09;5091403;28;20051;-69
2022/09/13 05:03:52;;;;;;;9.07;6.28;;;;;;;11.51;66.73;100298.81;5091838;28;20047;-69
2022/09/13 05:06:19;;;;;;;11.82;6.10;;;;;;;11.64;66.31;100299.09;5091448;28;20048;-69
2022/09/13 05:08:54;;;;;;;12.27;6.82;;;;;;;11.44;66.83;100293.31;5091056;28;20048;-69
2022/09/13 05:11:22;;;;;;;8.60;6.22;;;;;;;11.56;66.57;100299.97;5091023;28;20044;-69
2022/09/13 05:13:57;;;;;;;17.98;6.40;;;;;;;11.66;66.29;100289.88;5091327;28;20044;-69
2022/09/13 05:16:26;;;;;;;13.45;5.90;;;;;;;11.73;66.14;100287.31;5090833;28;20090;-69
2022/09/13 05:18:52;;;;;;;7.85;6.22;;;;;;;11.77;66.06;100282.41;5091063;28;20498;-69
2022/09/13 05:21:20;;;;;;;8.38;6.25;;;;;;;11.62;66.30;100282.28;5091197;28;20067;-69
2022/09/13 05:23:51;;;;;;;9.50;6.22;;;;;;;11.90;65.76;100283.50;5091302;28;20052;-70
2022/09/13 05:26:18;;;;;;;8.40;5.03;;;;;;;11.81;65.69;100279.19;5091392;28;20055;-69
2022/09/13 05:28:44;;;;;;;9.98;6.15;;;;;;;11.65;66.23;100274.72;5091339;28;20282;-69
2022/09/13 05:31:39;;;;;;;9.05;6.20;;;;;;;11.81;66.01;100273.81;5091332;28;20498;-69
2022/09/13 05:34:09;;;;;;;14.18;7.43;;;;;;;12.05;65.28;100283.53;5087141;28;20519;-69
2022/09/13 05:36:36;;;;;;;17.77;7.13;;;;;;;11.87;65.95;100278.47;5090411;28;20048;-70
2022/09/13 05:39:04;;;;;;;13.30;6.88;;;;;;;12.05;65.40;100280.00;5091120;28;20047;-70
2022/09/13 05:41:50;;;;;;;8.63;6.45;;;;;;;12.04;65.55;100273.81;5091170;28;20059;-69
2022/09/13 05:44:17;;;;;;;10.77;7.35;;;;;;;12.22;65.00;100278.84;5091169;28;20048;-69
2022/09/13 05:46:47;;;;;;;10.35;6.75;;;;;;;12.13;65.29;100274.56;5090963;28;20115;-69
2022/09/13 05:49:14;;;;;;;16.38;6.90;;;;;;;12.23;65.73;100285.91;5090868;28;20472;-69
2022/09/13 05:51:40;;;;;;;9.15;7.00;;;;;;;12.15;66.29;100292.19;5090927;28;20048;-69
2022/09/13 05:54:09;;;;;;;15.68;8.10;;;;;;;12.34;66.38;100292.69;5091193;28;20044;-70
2022/09/13 05:56:36;;;;;;;13.60;7.70;;;;;;;12.42;66.74;100300.69;5091100;28;20048;-69
2022/09/13 05:59:02;;;;;;;11.85;7.30;;;;;;;12.30;67.39;100300.28;5095302;28;20044;-69
2022/09/13 06:01:29;;;;;;;12.93;7.68;;;;;;;12.48;67.19;100291.88;5095639;28;20067;-69
2022/09/13 06:03:57;;;;;;;19.73;8.00;;;;;;;12.54;67.36;100295.69;5095679;28;20376;-69
2022/09/13 06:06:24;;;;;;;14.77;7.75;;;;;;;12.57;67.35;100303.41;5093890;28;20518;-69
2022/09/13 06:08:52;;;;;;;13.57;8.43;;;;;;;12.73;66.72;100305.06;5095299;28;20040;-69
2022/09/13 06:11:19;;;;;;;14.50;8.45;;;;;;;12.65;67.18;100306.00;5094827;28;20051;-69
2022/09/13 06:13:45;;;;;;;10.25;7.93;;;;;;;12.74;67.02;100314.84;5095034;28;20044;-69
2022/09/13 06:16:15;;;;;;;22.02;8.30;;;;;;;12.57;67.84;100312.31;5094395;28;20052;-69
2022/09/13 06:18:42;;;;;;;15.60;8.80;;;;;;;12.47;68.47;100317.13;5093783;28;20404;-68
2022/09/13 06:21:18;;;;;;;12.95;8.10;;;;;;;12.50;68.20;100310.53;5094887;28;20055;-69
2022/09/13 06:23:52;;;;;;;18.83;8.88;;;;;;;12.52;68.75;100311.19;5085540;28;20040;-69
2022/09/13 06:26:21;;;;;;;20.27;8.75;;;;;;;12.61;68.46;100320.84;5094971;28;20054;-69
2022/09/13 06:28:53;;;;;;;16.35;10.88;;;;;;;12.46;68.97;100325.38;5094697;28;20055;-69
2022/09/13 06:31:21;;;;;;;17.40;12.57;;;;;;;12.65;68.46;100316.78;5091276;28;20058;-69
2022/09/13 06:41:37;;;;;;;12.75;9.27;;;;;;;12.72;68.64;100328.47;5062536;28;20051;-69
2022/09/13 06:44:04;;;;;;;13.80;9.25;;;;;;;12.61;69.08;100319.00;5089575;28;20062;-69
2022/09/13 06:46:33;;;;;;;15.63;9.70;;;;;;;12.52;69.57;100314.72;5093865;28;20052;-68
2022/09/13 06:49:02;;;;;;;25.25;9.70;;;;;;;12.76;68.81;100302.06;5093877;28;20044;-69
2022/09/13 06:51:29;;;;;;;14.57;10.00;;;;;;;12.62;69.88;100301.81;5094142;28;20051;-69
2022/09/13 06:53:56;;;;;;;14.68;10.05;;;;;;;12.82;69.56;100296.78;5092253;28;20051;-69
2022/09/13 06:56:27;;;;;;;16.27;10.73;;;;;;;12.87;69.17;100297.06;5093267;28;20047;-69
2022/09/13 06:58:56;;;;;;;17.40;10.35;;;;;;;13.07;68.96;100291.94;5092353;28;20055;-69
2022/09/13 07:01:28;;;;;;;13.07;9.60;;;;;;;12.64;70.11;100274.75;5092708;28;20048;-69
2022/09/13 07:04:03;;;;;;;16.48;9.48;;;;;;;12.98;69.16;100266.13;5092422;28;20048;-69
2022/09/13 07:06:34;;;;;;;12.80;9.57;;;;;;;13.15;68.75;100264.09;5092984;28;20048;-69
2022/09/13 07:09:02;;;;;;;;;;;;;;;12.97;68.96;100271.69;5090572;28;20431;-69
2022/09/13 07:11:32;;;;;;;16.70;9.90;;;;;;;13.07;68.94;100266.84;5086328;28;19943;-69
2022/09/13 07:14:00;;;;;;;14.73;10.00;;;;;;;13.25;68.60;100280.78;5081821;28;20510;-69
2022/09/13 07:16:31;;;;;;;16.42;10.65;;;;;;;13.19;68.80;100267.22;5091972;28;20498;-69
2022/09/13 07:19:00;;;;;;;20.30;9.63;;;;;;;12.88;69.94;100265.59;5092099;28;20051;-69
2022/09/13 07:21:27;;;;;;;14.43;9.63;;;;;;;13.03;69.67;100260.19;5092306;28;20040;-69
2022/09/13 07:23:55;;;;;;;16.67;10.55;;;;;;;13.00;69.52;100257.88;5092016;28;20044;-69
2022/09/13 07:26:22;;;;;;;16.38;10.80;;;;;;;12.85;70.04;100264.09;5092102;28;20051;-69
2022/09/13 07:28:52;;;;;;;18.00;10.57;;;;;;;13.03;69.51;100277.16;5091009;28;20067;-69
2022/09/13 07:31:25;;;;;;;15.93;11.90;;;;;;;13.31;69.28;100271.91;5092337;28;20051;-69
2022/09/13 07:33:56;;;;;;;13.55;10.68;;;;;;;13.03;69.64;100260.19;5093334;28;20054;-69
2022/09/13 07:36:24;;;;;;;14.57;10.80;;;;;;;13.27;68.55;100259.03;5092135;28;20048;-69
2022/09/13 07:38:51;;;;;;;12.50;9.82;;;;;;;13.26;68.81;100266.28;5092709;28;20040;-69
2022/09/13 07:41:21;;;;;;;15.57;10.15;;;;;;;13.44;68.60;100267.72;5091943;28;20052;-68
2022/09/13 07:43:48;;;;;;;17.05;10.65;;;;;;;13.09;69.20;100259.44;5091934;28;20047;-68
2022/09/13 07:46:18;;;;;;;16.05;10.18;;;;;;;13.07;69.57;100246.16;5091945;28;20058;-69
2022/09/13 07:48:45;;;;;;;13.93;10.25;;;;;;;13.47;68.36;100243.94;5091922;28;20051;-69
2022/09/13 07:51:17;;;;;;;15.13;10.77;;;;;;;13.52;68.53;100249.56;5092052;28;20052;-69
2022/09/13 07:53:44;;;;;;;17.20;10.57;;;;;;;13.64;68.14;100249.09;5091531;28;20047;-69
2022/09/13 07:56:17;;;;;;;14.18;9.88;;;;;;;13.62;67.78;100251.94;5091412;28;20484;-69
2022/09/13 07:58:45;;;;;;;14.77;11.02;;;;;;;13.90;67.67;100254.75;5091064;28;20415;-69
2022/09/13 08:01:32;;;;;;;16.38;10.88;;;;;;;13.90;67.73;100265.53;5091427;28;20366;-69
2022/09/13 08:04:01;;;;;;;16.17;10.70;;;;;;;13.71;68.33;100264.28;5091874;28;20496;-69
2022/09/13 08:06:31;;;;;;;13.55;10.25;;;;;;;13.68;69.00;100267.38;5091053;28;20123;-69
2022/09/13 08:08:57;;;;;;;16.58;11.35;;;;;;;13.85;68.85;100264.47;5091481;28;20040;-68
2022/09/13 08:11:31;;;;;;;14.85;10.38;;;;;;;13.71;68.79;100250.81;5091457;28;20060;-69
2022/09/13 08:13:58;;;;;;;16.05;10.45;;;;;;;13.90;68.14;100253.91;5090936;28;20047;-69
2022/09/13 08:16:27;;;;;;;18.02;10.50;;;;;;;13.97;67.82;100254.81;5090853;28;20044;-69
2022/09/13 08:18:56;;;;;;;13.32;10.10;;;;;;;14.13;67.83;100259.09;5091175;28;20055;-69
2022/09/13 08:21:23;;;;;;;12.93;9.95;;;;;;;14.09;67.94;100252.44;5090851;28;20055;-69
2022/09/13 08:23:55;;;;;;;15.57;9.57;;;;;;;14.01;67.98;100256.06;5091387;28;20044;-70
2022/09/13 08:26:21;;;;;;;14.73;9.52;;;;;;;14.46;67.04;100265.59;5091625;28;20451;-68
2022/09/13 08:28:48;;;;;;;11.75;9.73;;;;;;;14.37;66.41;100274.03;5068230;28;20400;-68
2022/09/13 08:31:16;;;;;;;18.95;9.90;;;;;;;14.26;67.09;100265.44;5090435;28;20052;-70
2022/09/13 08:33:44;;;;;;;14.40;10.02;;;;;;;14.43;66.46;100270.56;5091583;28;20048;-69
2022/09/13 08:36:13;;;;;;;18.10;10.10;;;;;;;14.62;66.13;100269.84;5091697;28;20051;-70
2022/09/13 08:38:47;;;;;;;15.98;10.38;;;;;;;14.31;66.97;100272.94;5073405;28;20546;-69
2022/09/13 08:41:54;;;;;;;13.45;9.10;;;;;;;14.87;66.20;100277.50;5091126;28;20098;-69
2022/09/13 08:44:28;;;;;;;13.80;9.30;;;;;;;15.04;65.08;100278.81;5087591;28;20515;-69
2022/09/13 08:47:10;;;;;;;10.82;8.80;;;;;;;15.60;63.87;100278.63;5091080;28;20040;-70
2022/09/13 08:49:43;;;;;;;19.02;9.98;;;;;;;15.40;64.11;100275.88;5086134;28;20051;-70
2022/09/13 08:52:15;;;;;;;13.07;8.75;;;;;;;15.36;63.82;100265.66;5090105;28;20480;-69
2022/09/13 08:54:42;;;;;;;10.20;8.20;;;;;;;16.03;62.39;100267.50;5090534;28;20044;-70
2022/09/13 08:57:13;;;;;;;19.63;8.52;;;;;;;16.50;60.71;100254.78;5091291;28;20377;-70
2022/09/13 08:59:45;;;;;;;34.22;8.73;;;;;;;16.63;60.01;100257.47;5089984;28;20048;-69
2022/09/13 09:02:11;;;;;;;;;;;;;;;16.77;59.66;100252.03;5091469;28;20067;-70
2022/09/13 09:04:44;;;;;;;13.05;8.45;;;;;;;16.54;60.36;100245.22;5090975;28;19970;-70
2022/09/13 09:07:17;;;;;;;11.32;8.00;;;;;;;16.92;58.52;100240.94;5071681;28;20105;-71
2022/09/13 09:09:55;;;;;;;14.88;7.55;;;;;;;16.87;59.47;100236.19;5090635;28;20048;-71
2022/09/13 09:12:42;;;;;;;13.32;8.30;;;;;;;17.18;58.79;100229.19;5089635;28;20052;-71
2022/09/13 09:15:18;;;;;;;18.58;13.63;;;;;;;18.43;55.51;100232.09;5080739;28;20056;-70
2022/09/13 09:18:03;;;;;;;10.90;7.30;;;;;;;18.16;56.19;100234.22;5089943;28;20043;-71
2022/09/13 09:20:35;;;;;;;11.05;6.88;;;;;;;18.63;55.26;100223.75;5090682;28;20059;-71
2022/09/13 09:23:51;;;;;;;13.25;6.60;;;;;;;19.24;53.18;100230.97;5088402;28;20377;-71
2022/09/13 09:26:28;;;;;;;12.52;6.50;;;;;;;20.17;50.74;100237.75;5076504;28;20048;-71
2022/09/13 09:29:08;;;;;;;10.35;6.60;;;;;;;20.32;50.17;100229.97;5087961;28;20051;-71
2022/09/13 09:31:58;;;;;;;11.13;7.05;;;;;;;20.12;50.59;100237.66;5090845;28;20048;-70
2022/09/13 09:34:31;;;;;;;8.98;5.78;;;;;;;20.26;49.71;100236.34;5093120;28;20498;-71
2022/09/13 09:37:10;;;;;;;10.52;6.00;;;;;;;19.61;52.04;100242.59;5094754;28;20044;-71
2022/09/13 09:39:38;;;;;;;8.32;5.88;;;;;;;19.30;52.40;100234.66;5095394;28;20051;-71
2022/09/13 09:42:18;;;;;;;11.20;6.13;;;;;;;19.55;52.16;100242.69;5094183;28;20494;-71
2022/09/13 09:44:50;;;;;;;10.10;5.95;;;;;;;19.22;52.79;100244.81;5094137;28;20040;-71
2022/09/13 09:47:24;;;;;;;10.07;5.93;;;;;;;18.88;53.88;100243.50;5088162;28;20048;-71
2022/09/13 09:50:09;;;;;;;7.68;6.05;;;;;;;19.53;52.36;100239.38;5094591;28;20043;-71
2022/09/13 09:52:52;;;;;;;13.38;6.28;;;;;;;19.33;53.05;100237.75;5094039;28;20051;-70
2022/09/13 09:55:25;;;;;;;8.23;5.65;;;;;;;19.82;51.60;100237.69;5073557;28;20081;-70
2022/09/13 09:57:53;;;;;;;10.88;6.05;;;;;;;20.42;49.76;100232.13;5073250;28;20404;-71
2022/09/13 10:00:23;;;;;;;8.98;6.40;;;;;;;21.01;49.06;100248.38;5072893;28;20049;-71
2022/09/13 10:02:53;;;;;;;10.68;5.30;;;;;;;20.30;50.19;100234.81;5074408;28;20045;-71
2022/09/13 10:05:22;;;;;;;8.47;4.90;;;;;;;21.96;46.10;100220.47;5074230;28;20063;-71
2022/09/13 10:07:56;;;;;;;8.57;5.97;;;;;;;21.42;46.82;100219.22;5073662;28;20055;-71
2022/09/13 10:10:27;;;;;;;13.45;5.35;;;;;;;21.86;46.27;100223.03;5073210;28;20044;-70
2022/09/13 10:12:55;;;;;;;11.10;5.15;;;;;;;23.10;43.10;100213.63;5073387;28;20055;-71
2022/09/13 10:15:28;;;;;;;12.55;5.38;;;;;;;22.27;44.90;100216.31;5073087;28;20496;-71
2022/09/13 10:18:01;;;;;;;6.88;5.22;;;;;;;22.85;43.33;100224.28;5073258;28;20044;-71
2022/09/13 10:20:28;;;;;;;6.60;5.03;;;;;;;21.38;46.72;100219.69;5073374;28;20128;-71
2022/09/13 10:23:19;;;;;;;11.88;5.07;;;;;;;20.50;49.45;100220.88;5073568;28;20048;-71
2022/09/13 10:25:56;;;;;;;7.13;5.60;;;;;;;21.22;47.43;100228.69;5068430;28;20040;-71
2022/09/13 10:28:24;;;;;;;11.13;6.75;;;;;;;20.49;48.89;100215.63;5072821;28;20052;-71
2022/09/13 10:31:05;;;;;;;12.38;7.80;;;;;;;20.38;48.89;100209.09;5073026;28;20047;-71
2022/09/13 10:33:38;;;;;;;9.45;5.95;;;;;;;19.58;51.31;100206.84;5072766;28;20045;-71
2022/09/13 10:36:28;;;;;;;8.50;5.80;;;;;;;19.67;51.28;100208.19;5073572;28;20404;-72
2022/09/13 10:39:19;;;;;;;9.43;6.57;;;;;;;19.43;52.44;100197.22;5060792;28;20405;-71
2022/09/13 10:42:07;;;;;;;9.00;5.95;;;;;;;19.21;52.98;100209.69;5052877;28;20465;-71
2022/09/13 10:44:44;;;;;;;7.57;5.70;;;;;;;19.39;52.12;100193.31;5072705;28;20052;-70
2022/09/13 10:47:21;;;;;;;13.48;6.93;;;;;;;19.34;52.66;100193.16;5073506;28;20495;-70
2022/09/13 10:49:54;;;;;;;12.20;7.22;;;;;;;18.93;53.92;100202.06;5065001;28;20044;-70
2022/09/13 10:52:23;;;;;;;8.90;6.90;;;;;;;19.35;52.28;100189.41;5072933;28;20334;-70
2022/09/13 10:54:50;;;;;;;9.23;6.53;;;;;;;19.41;52.21;100185.72;5072605;28;20051;-70
2022/09/13 10:57:35;;;;;;;12.93;6.45;;;;;;;19.11;53.63;100190.38;5073533;28;20047;-70
2022/09/13 11:00:09;;;;;;;10.25;6.60;;;;;;;19.46;52.45;100195.94;5055648;28;20051;-70
2022/09/13 11:02:38;;;;;;;12.02;6.25;;;;;;;19.31;53.02;100185.50;5072884;28;20060;-68
2022/09/13 11:05:18;;;;;;;10.88;6.40;;;;;;;19.31;53.04;100196.38;5073176;28;20048;-68
2022/09/13 11:08:11;;;;;;;14.27;6.55;;;;;;;18.60;55.82;100197.00;5068575;28;20044;-68
2022/09/13 11:11:11;;;;;;;9.45;7.13;;;;;;;18.29;57.05;100196.09;5073042;28;20048;-68
2022/09/13 11:14:22;;;;;;;13.45;7.43;;;;;;;18.16;57.83;100199.75;5071709;28;20498;-67
2022/09/13 11:17:13;;;;;;;12.43;8.15;;;;;;;18.35;57.74;100211.50;5067672;28;20044;-68
2022/09/13 11:19:43;;;;;;;14.00;8.98;;;;;;;17.94;60.31;100202.00;5072819;28;20041;-68
2022/09/13 11:22:24;;;;;;;14.52;10.13;;;;;;;17.57;62.14;100201.84;5072436;28;20040;-68
2022/09/13 11:25:30;;;;;;;16.35;9.70;;;;;;;17.73;62.41;100203.22;5072354;28;20500;-68
2022/09/13 11:27:56;;;;;;;20.30;11.70;;;;;;;17.60;63.14;100196.00;5071724;28;20382;-67
2022/09/13 11:30:24;;;;;;;31.48;18.20;;;;;;;17.45;63.97;100205.50;5072273;28;20131;-67
2022/09/13 11:33:31;;;;;;;14.75;10.23;;;;;;;17.62;63.50;100195.78;5072179;28;20401;-67
2022/09/13 11:36:03;;;;;;;;;;;;;;;17.64;64.00;100198.25;5071543;28;20041;-67
2022/09/13 11:38:35;;;;;;;15.63;12.32;;;;;;;17.80;63.57;100197.75;5067125;28;20407;-67
2022/09/13 11:41:17;;;;;;;25.42;14.52;;;;;;;17.33;65.26;100198.00;5072847;28;20044;-67
2022/09/13 11:44:02;;;;;;;20.77;14.00;;;;;;;17.37;65.27;100195.72;5073624;28;20056;-67
2022/09/13 11:46:43;;;;;;;28.33;16.58;;;;;;;17.50;65.02;100198.34;5071700;28;20397;-67
2022/09/13 11:49:28;;;;;;;25.73;17.92;;;;;;;17.55;64.96;100195.84;5070879;28;20056;-67
2022/09/13 11:52:21;;;;;;;23.08;15.20;;;;;;;17.33;65.64;100199.88;5071716;28;20041;-67
2022/09/13 11:55:12;;;;;;;22.88;15.48;;;;;;;17.38;65.89;100197.41;5104351;28;20039;-67
2022/09/13 11:57:41;;;;;;;;;;;;;;;17.11;66.52;100194.78;5112925;28;20472;-67
2022/09/13 12:00:21;;;;;;;19.27;14.63;;;;;;;17.52;65.75;100185.41;5093895;28;19920;-67
2022/09/13 12:03:00;;;;;;;14.25;10.55;;;;;;;17.91;64.34;100188.88;5111830;28;20054;-67
2022/09/13 12:05:33;;;;;;;30.48;15.93;;;;;;;17.83;64.21;100186.44;5112305;28;20070;-67